sensor_id;sensor_type;location;lat;lon;timestamp;P1;durP1;ratioP1;P2;durP2;ratioP2
10511;SDS011;5304;48.604;2.096;2023-07-16T04:33:51;10.97;;;4.73;;
10511;SDS011;5304;48.604;2.096;2023-07-16T04:36:35;14.83;;;5.80;;
10511;SDS011;5304;48.604;2.096;2023-07-16T04:39:20;13.50;;;5.37;;
10511;SDS011;5304;48.604;2.096;2023-07-16T04:42:04;9.50;;;5.23;;
10511;SDS011;5304;48.604;2.096;2023-07-16T04:44:49;13.67;;;5.77;;
10511;SDS011;5304;48.604;2.096;2023-07-16T04:47:33;15.53;;;5.50;;
10511;SDS011;5304;48.604;2.096;2023-07-16T04:50:17;16.00;;;5.53;;
10511;SDS011;5304;48.604;2.096;2023-07-16T04:53:02;12.83;;;6.10;;
10511;SDS011;5304;48.604;2.096;2023-07-16T04:55:46;16.57;;;6.00;;
10511;SDS011;5304;48.604;2.096;2023-07-16T04:58:30;11.77;;;6.13;;
10511;SDS011;5304;48.604;2.096;2023-07-16T05:01:16;13.23;;;6.13;;
10511;SDS011;5304;48.604;2.096;2023-07-16T05:04:00;13.20;;;6.10;;
10511;SDS011;5304;48.604;2.096;2023-07-16T05:06:44;12.80;;;6.03;;
10511;SDS011;5304;48.604;2.096;2023-07-16T05:09:28;12.87;;;6.37;;
10511;SDS011;5304;48.604;2.096;2023-07-16T05:12:12;11.97;;;6.30;;
10511;SDS011;5304;48.604;2.096;2023-07-16T05:14:57;14.40;;;6.47;;
10511;SDS011;5304;48.604;2.096;2023-07-16T05:17:41;16.03;;;5.97;;
10511;SDS011;5304;48.604;2.096;2023-07-16T05:20:25;16.67;;;6.50;;
10511;SDS011;5304;48.604;2.096;2023-07-16T05:23:10;13.67;;;5.27;;
10511;SDS011;5304;48.604;2.096;2023-07-16T05:25:54;9.93;;;6.10;;
10511;SDS011;5304;48.604;2.096;2023-07-16T05:28:38;16.87;;;6.87;;
10511;SDS011;5304;48.604;2.096;2023-07-16T05:31:23;14.67;;;6.57;;
10511;SDS011;5304;48.604;2.096;2023-07-16T05:34:07;13.43;;;6.43;;
10511;SDS011;5304;48.604;2.096;2023-07-16T05:36:53;13.23;;;6.47;;
10511;SDS011;5304;48.604;2.096;2023-07-16T05:39:38;12.30;;;6.17;;
10511;SDS011;5304;48.604;2.096;2023-07-16T05:42:22;16.33;;;6.90;;
10511;SDS011;5304;48.604;2.096;2023-07-16T05:45:06;17.13;;;6.73;;
10511;SDS011;5304;48.604;2.096;2023-07-16T05:47:51;15.20;;;6.57;;
10511;SDS011;5304;48.604;2.096;2023-07-16T05:50:36;14.90;;;6.37;;
10511;SDS011;5304;48.604;2.096;2023-07-16T05:53:20;12.47;;;6.27;;
10511;SDS011;5304;48.604;2.096;2023-07-16T05:56:04;16.40;;;6.17;;
10511;SDS011;5304;48.604;2.096;2023-07-16T05:58:48;12.00;;;6.20;;
10511;SDS011;5304;48.604;2.096;2023-07-16T06:01:32;11.70;;;7.00;;
10511;SDS011;5304;48.604;2.096;2023-07-16T06:04:16;15.13;;;6.47;;
10511;SDS011;5304;48.604;2.096;2023-07-16T06:07:01;16.80;;;5.87;;
10511;SDS011;5304;48.604;2.096;2023-07-16T06:09:46;12.10;;;5.87;;
10511;SDS011;5304;48.604;2.096;2023-07-16T06:12:31;17.73;;;7.07;;
10511;SDS011;5304;48.604;2.096;2023-07-16T06:15:16;12.40;;;6.70;;
10511;SDS011;5304;48.604;2.096;2023-07-16T06:18:00;12.17;;;6.03;;
10511;SDS011;5304;48.604;2.096;2023-07-16T06:20:44;16.67;;;6.50;;
10511;SDS011;5304;48.604;2.096;2023-07-16T06:23:29;16.10;;;6.60;;
10511;SDS011;5304;48.604;2.096;2023-07-16T06:26:14;18.27;;;7.20;;
10511;SDS011;5304;48.604;2.096;2023-07-16T06:28:58;14.67;;;6.13;;
10511;SDS011;5304;48.604;2.096;2023-07-16T06:31:43;17.77;;;6.93;;
10511;SDS011;5304;48.604;2.096;2023-07-16T06:34:37;17.00;;;6.17;;
10511;SDS011;5304;48.604;2.096;2023-07-16T06:37:21;13.50;;;6.10;;
10511;SDS011;5304;48.604;2.096;2023-07-16T06:40:07;19.83;;;6.70;;
10511;SDS011;5304;48.604;2.096;2023-07-16T06:42:52;13.57;;;5.90;;
10511;SDS011;5304;48.604;2.096;2023-07-16T06:45:36;13.60;;;5.70;;
10511;SDS011;5304;48.604;2.096;2023-07-16T06:48:21;16.07;;;6.33;;
10511;SDS011;5304;48.604;2.096;2023-07-16T06:51:06;15.37;;;5.37;;
10511;SDS011;5304;48.604;2.096;2023-07-16T06:53:50;10.90;;;5.47;;
10511;SDS011;5304;48.604;2.096;2023-07-16T06:56:35;16.40;;;6.23;;
10511;SDS011;5304;48.604;2.096;2023-07-16T06:59:19;15.63;;;6.00;;
10511;SDS011;5304;48.604;2.096;2023-07-16T07:02:03;15.63;;;5.57;;
10511;SDS011;5304;48.604;2.096;2023-07-16T07:04:47;15.80;;;5.87;;
10511;SDS011;5304;48.604;2.096;2023-07-16T07:07:32;18.27;;;6.03;;
10511;SDS011;5304;48.604;2.096;2023-07-16T07:10:16;14.93;;;5.63;;
10511;SDS011;5304;48.604;2.096;2023-07-16T07:13:00;13.00;;;5.57;;
10511;SDS011;5304;48.604;2.096;2023-07-16T07:15:44;14.85;;;5.72;;
10511;SDS011;5304;48.604;2.096;2023-07-16T07:18:29;14.87;;;5.67;;
10511;SDS011;5304;48.604;2.096;2023-07-16T07:21:13;12.13;;;5.28;;
10511;SDS011;5304;48.604;2.096;2023-07-16T07:23:57;17.17;;;5.45;;
10511;SDS011;5304;48.604;2.096;2023-07-16T07:26:41;11.47;;;5.10;;
10511;SDS011;5304;48.604;2.096;2023-07-16T07:29:25;13.40;;;5.00;;
10511;SDS011;5304;48.604;2.096;2023-07-16T07:32:10;14.55;;;5.45;;
10511;SDS011;5304;48.604;2.096;2023-07-16T07:34:54;11.70;;;5.28;;
10511;SDS011;5304;48.604;2.096;2023-07-16T07:37:38;15.20;;;5.05;;
10511;SDS011;5304;48.604;2.096;2023-07-16T07:40:22;20.50;;;5.65;;
10511;SDS011;5304;48.604;2.096;2023-07-16T07:43:07;12.40;;;5.45;;
10511;SDS011;5304;48.604;2.096;2023-07-16T07:45:51;11.65;;;5.53;;
10511;SDS011;5304;48.604;2.096;2023-07-16T07:48:35;16.10;;;5.32;;
10511;SDS011;5304;48.604;2.096;2023-07-16T07:51:19;10.30;;;4.57;;
10511;SDS011;5304;48.604;2.096;2023-07-16T07:54:04;15.75;;;5.13;;
10511;SDS011;5304;48.604;2.096;2023-07-16T07:56:48;17.20;;;5.03;;
10511;SDS011;5304;48.604;2.096;2023-07-16T07:59:32;10.55;;;4.50;;
10511;SDS011;5304;48.604;2.096;2023-07-16T08:02:16;13.80;;;4.63;;
10511;SDS011;5304;48.604;2.096;2023-07-16T08:05:02;10.65;;;4.20;;
10511;SDS011;5304;48.604;2.096;2023-07-16T08:07:46;13.38;;;4.65;;
10511;SDS011;5304;48.604;2.096;2023-07-16T08:10:32;13.68;;;4.32;;
10511;SDS011;5304;48.604;2.096;2023-07-16T08:13:17;10.70;;;4.03;;
10511;SDS011;5304;48.604;2.096;2023-07-16T08:16:01;9.70;;;4.25;;
10511;SDS011;5304;48.604;2.096;2023-07-16T08:18:45;11.23;;;4.00;;
10511;SDS011;5304;48.604;2.096;2023-07-16T08:21:29;13.63;;;3.97;;
10511;SDS011;5304;48.604;2.096;2023-07-16T08:24:13;8.55;;;3.50;;
10511;SDS011;5304;48.604;2.096;2023-07-16T08:26:58;7.93;;;3.85;;
10511;SDS011;5304;48.604;2.096;2023-07-16T08:29:42;12.80;;;4.28;;
10511;SDS011;5304;48.604;2.096;2023-07-16T08:32:26;11.07;;;3.72;;
10511;SDS011;5304;48.604;2.096;2023-07-16T08:35:11;7.57;;;3.25;;
10511;SDS011;5304;48.604;2.096;2023-07-16T08:37:59;9.20;;;3.70;;
10511;SDS011;5304;48.604;2.096;2023-07-16T08:40:46;12.43;;;4.00;;
10511;SDS011;5304;48.604;2.096;2023-07-16T08:43:32;9.05;;;3.67;;
10511;SDS011;5304;48.604;2.096;2023-07-16T08:46:17;7.65;;;3.58;;
10511;SDS011;5304;48.604;2.096;2023-07-16T08:49:02;11.35;;;4.05;;
10511;SDS011;5304;48.604;2.096;2023-07-16T08:51:48;11.40;;;4.07;;
10511;SDS011;5304;48.604;2.096;2023-07-16T08:54:34;9.80;;;4.40;;
10511;SDS011;5304;48.604;2.096;2023-07-16T08:57:18;12.55;;;4.05;;
10511;SDS011;5304;48.604;2.096;2023-07-16T09:00:05;9.30;;;4.10;;
10511;SDS011;5304;48.604;2.096;2023-07-16T09:02:50;10.90;;;3.92;;
10511;SDS011;5304;48.604;2.096;2023-07-16T09:05:36;12.38;;;4.45;;
10511;SDS011;5304;48.604;2.096;2023-07-16T09:08:20;13.23;;;4.15;;
10511;SDS011;5304;48.604;2.096;2023-07-16T09:11:04;11.20;;;4.32;;
10511;SDS011;5304;48.604;2.096;2023-07-16T09:13:48;12.23;;;4.72;;
10511;SDS011;5304;48.604;2.096;2023-07-16T09:16:33;17.65;;;4.85;;
10511;SDS011;5304;48.604;2.096;2023-07-16T09:19:18;15.32;;;5.20;;
10511;SDS011;5304;48.604;2.096;2023-07-16T09:22:02;14.53;;;4.90;;
10511;SDS011;5304;48.604;2.096;2023-07-16T09:24:47;9.35;;;4.20;;
10511;SDS011;5304;48.604;2.096;2023-07-16T09:27:32;9.27;;;4.07;;
10511;SDS011;5304;48.604;2.096;2023-07-16T09:30:16;13.93;;;4.53;;
10511;SDS011;5304;48.604;2.096;2023-07-16T09:36:21;12.15;;;4.68;;
10511;SDS011;5304;48.604;2.096;2023-07-16T09:39:07;16.98;;;4.45;;
10511;SDS011;5304;48.604;2.096;2023-07-16T09:41:52;14.88;;;4.40;;
10511;SDS011;5304;48.604;2.096;2023-07-16T09:44:40;10.93;;;4.20;;
10511;SDS011;5304;48.604;2.096;2023-07-16T09:47:25;9.52;;;3.97;;
10511;SDS011;5304;48.604;2.096;2023-07-16T09:50:10;11.30;;;3.97;;
10511;SDS011;5304;48.604;2.096;2023-07-16T09:52:55;11.73;;;4.07;;
10511;SDS011;5304;48.604;2.096;2023-07-16T09:55:40;11.93;;;4.05;;
10511;SDS011;5304;48.604;2.096;2023-07-16T09:58:25;10.65;;;3.70;;
10511;SDS011;5304;48.604;2.096;2023-07-16T10:01:10;12.10;;;3.92;;
10511;SDS011;5304;48.604;2.096;2023-07-16T10:03:55;10.10;;;4.28;;
10511;SDS011;5304;48.604;2.096;2023-07-16T10:09:41;8.25;;;3.92;;
10511;SDS011;5304;48.604;2.096;2023-07-16T10:12:34;10.65;;;3.70;;
10511;SDS011;5304;48.604;2.096;2023-07-16T10:15:24;7.78;;;3.35;;
10511;SDS011;5304;48.604;2.096;2023-07-16T10:18:09;8.70;;;3.70;;
10511;SDS011;5304;48.604;2.096;2023-07-16T10:20:53;10.02;;;3.88;;
10511;SDS011;5304;48.604;2.096;2023-07-16T10:23:38;8.90;;;3.42;;
10511;SDS011;5304;48.604;2.096;2023-07-16T10:26:27;8.93;;;3.30;;
10511;SDS011;5304;48.604;2.096;2023-07-16T10:29:15;8.23;;;3.30;;
10511;SDS011;5304;48.604;2.096;2023-07-16T10:31:59;9.15;;;3.47;;
10511;SDS011;5304;48.604;2.096;2023-07-16T10:34:43;9.88;;;3.50;;
10511;SDS011;5304;48.604;2.096;2023-07-16T10:37:27;7.78;;;3.58;;
10511;SDS011;5304;48.604;2.096;2023-07-16T10:40:13;5.55;;;3.40;;
10511;SDS011;5304;48.604;2.096;2023-07-16T10:42:58;6.28;;;3.03;;
10511;SDS011;5304;48.604;2.096;2023-07-16T10:45:43;8.85;;;3.38;;
10511;SDS011;5304;48.604;2.096;2023-07-16T10:48:32;10.18;;;3.53;;
10511;SDS011;5304;48.604;2.096;2023-07-16T10:51:16;6.63;;;3.40;;
10511;SDS011;5304;48.604;2.096;2023-07-16T10:54:00;10.25;;;3.67;;
10511;SDS011;5304;48.604;2.096;2023-07-16T10:56:48;9.00;;;3.60;;
10511;SDS011;5304;48.604;2.096;2023-07-16T10:59:36;6.95;;;3.55;;
10511;SDS011;5304;48.604;2.096;2023-07-16T11:02:23;6.93;;;3.28;;
10511;SDS011;5304;48.604;2.096;2023-07-16T11:05:09;9.85;;;4.05;;
10511;SDS011;5304;48.604;2.096;2023-07-16T11:07:54;7.32;;;3.72;;
10511;SDS011;5304;48.604;2.096;2023-07-16T11:10:38;7.88;;;3.42;;
10511;SDS011;5304;48.604;2.096;2023-07-16T11:13:29;8.20;;;4.05;;
10511;SDS011;5304;48.604;2.096;2023-07-16T11:16:15;7.13;;;3.72;;
10511;SDS011;5304;48.604;2.096;2023-07-16T11:19:00;6.68;;;3.80;;
10511;SDS011;5304;48.604;2.096;2023-07-16T11:21:47;8.13;;;3.72;;
10511;SDS011;5304;48.604;2.096;2023-07-16T11:24:36;4.88;;;3.63;;
10511;SDS011;5304;48.604;2.096;2023-07-16T11:27:25;10.52;;;4.10;;
10511;SDS011;5304;48.604;2.096;2023-07-16T11:30:11;4.80;;;3.40;;
10511;SDS011;5304;48.604;2.096;2023-07-16T11:32:57;11.05;;;4.00;;
10511;SDS011;5304;48.604;2.096;2023-07-16T11:35:42;8.10;;;3.85;;
10511;SDS011;5304;48.604;2.096;2023-07-16T11:38:26;5.00;;;3.63;;
10511;SDS011;5304;48.604;2.096;2023-07-16T11:41:10;5.80;;;3.80;;
10511;SDS011;5304;48.604;2.096;2023-07-16T11:43:58;7.88;;;3.70;;
10511;SDS011;5304;48.604;2.096;2023-07-16T11:46:46;11.70;;;4.60;;
10511;SDS011;5304;48.604;2.096;2023-07-16T11:49:30;8.32;;;3.90;;
10511;SDS011;5304;48.604;2.096;2023-07-16T11:52:18;10.75;;;3.95;;
10511;SDS011;5304;48.604;2.096;2023-07-16T11:55:06;5.57;;;3.90;;
10511;SDS011;5304;48.604;2.096;2023-07-16T11:57:51;5.88;;;3.42;;
10511;SDS011;5304;48.604;2.096;2023-07-16T12:00:36;6.45;;;3.97;;
10511;SDS011;5304;48.604;2.096;2023-07-16T12:03:20;6.70;;;4.05;;
10511;SDS011;5304;48.604;2.096;2023-07-16T12:06:04;7.30;;;3.85;;
10511;SDS011;5304;48.604;2.096;2023-07-16T12:08:49;6.72;;;4.15;;
10511;SDS011;5304;48.604;2.096;2023-07-16T12:11:33;7.22;;;4.10;;
10511;SDS011;5304;48.604;2.096;2023-07-16T12:14:17;7.72;;;3.78;;
10511;SDS011;5304;48.604;2.096;2023-07-16T12:17:01;5.85;;;3.90;;
10511;SDS011;5304;48.604;2.096;2023-07-16T12:19:46;8.65;;;3.85;;
10511;SDS011;5304;48.604;2.096;2023-07-16T12:22:30;7.85;;;3.90;;
10511;SDS011;5304;48.604;2.096;2023-07-16T12:25:15;9.45;;;4.00;;
10511;SDS011;5304;48.604;2.096;2023-07-16T12:28:02;7.55;;;3.80;;
10511;SDS011;5304;48.604;2.096;2023-07-16T12:30:46;6.85;;;3.97;;
10511;SDS011;5304;48.604;2.096;2023-07-16T12:33:31;8.30;;;3.97;;
10511;SDS011;5304;48.604;2.096;2023-07-16T12:36:15;10.15;;;4.75;;
10511;SDS011;5304;48.604;2.096;2023-07-16T12:38:59;8.48;;;3.88;;
10511;SDS011;5304;48.604;2.096;2023-07-16T12:41:44;6.97;;;3.85;;
10511;SDS011;5304;48.604;2.096;2023-07-16T12:44:28;8.65;;;4.07;;
10511;SDS011;5304;48.604;2.096;2023-07-16T12:47:13;8.15;;;4.15;;
10511;SDS011;5304;48.604;2.096;2023-07-16T12:49:57;8.45;;;4.07;;
10511;SDS011;5304;48.604;2.096;2023-07-16T12:52:41;6.70;;;3.40;;
10511;SDS011;5304;48.604;2.096;2023-07-16T12:55:25;9.63;;;3.97;;
10511;SDS011;5304;48.604;2.096;2023-07-16T12:58:09;8.32;;;4.30;;
10511;SDS011;5304;48.604;2.096;2023-07-16T13:00:53;7.38;;;3.47;;
10511;SDS011;5304;48.604;2.096;2023-07-16T13:03:37;6.95;;;4.10;;
10511;SDS011;5304;48.604;2.096;2023-07-16T13:06:21;10.05;;;4.15;;
10511;SDS011;5304;48.604;2.096;2023-07-16T13:09:06;9.00;;;3.83;;
10511;SDS011;5304;48.604;2.096;2023-07-16T13:11:51;5.95;;;4.00;;
10511;SDS011;5304;48.604;2.096;2023-07-16T13:14:35;7.05;;;3.90;;
10511;SDS011;5304;48.604;2.096;2023-07-16T13:17:19;10.15;;;3.90;;
10511;SDS011;5304;48.604;2.096;2023-07-16T13:20:03;6.43;;;3.33;;
10511;SDS011;5304;48.604;2.096;2023-07-16T13:22:48;10.05;;;4.13;;
10511;SDS011;5304;48.604;2.096;2023-07-16T13:25:33;6.35;;;3.53;;
10511;SDS011;5304;48.604;2.096;2023-07-16T13:28:18;6.78;;;3.83;;
10511;SDS011;5304;48.604;2.096;2023-07-16T13:31:02;5.95;;;3.55;;
10511;SDS011;5304;48.604;2.096;2023-07-16T13:33:46;8.82;;;3.72;;
10511;SDS011;5304;48.604;2.096;2023-07-16T13:36:30;10.10;;;4.68;;
10511;SDS011;5304;48.604;2.096;2023-07-16T13:39:14;8.70;;;3.55;;
10511;SDS011;5304;48.604;2.096;2023-07-16T13:42:00;7.90;;;4.03;;
10511;SDS011;5304;48.604;2.096;2023-07-16T13:44:44;6.55;;;3.60;;
10511;SDS011;5304;48.604;2.096;2023-07-16T13:47:28;8.02;;;3.70;;
10511;SDS011;5304;48.604;2.096;2023-07-16T13:50:12;8.07;;;3.67;;
10511;SDS011;5304;48.604;2.096;2023-07-16T13:52:57;8.63;;;3.58;;
10511;SDS011;5304;48.604;2.096;2023-07-16T13:55:44;6.82;;;3.75;;
10511;SDS011;5304;48.604;2.096;2023-07-16T13:58:29;11.60;;;3.80;;
10511;SDS011;5304;48.604;2.096;2023-07-16T14:01:13;7.60;;;3.63;;
10511;SDS011;5304;48.604;2.096;2023-07-16T14:03:57;9.95;;;4.15;;
10511;SDS011;5304;48.604;2.096;2023-07-16T14:06:42;9.32;;;3.70;;
10511;SDS011;5304;48.604;2.096;2023-07-16T14:09:26;8.00;;;3.67;;
10511;SDS011;5304;48.604;2.096;2023-07-16T14:12:10;7.32;;;3.78;;
10511;SDS011;5304;48.604;2.096;2023-07-16T14:14:54;9.82;;;3.85;;
10511;SDS011;5304;48.604;2.096;2023-07-16T14:17:39;5.38;;;3.40;;
10511;SDS011;5304;48.604;2.096;2023-07-16T14:20:23;6.40;;;3.60;;
10511;SDS011;5304;48.604;2.096;2023-07-16T14:23:07;6.65;;;3.53;;
10511;SDS011;5304;48.604;2.096;2023-07-16T14:25:51;6.00;;;3.70;;
10511;SDS011;5304;48.604;2.096;2023-07-16T14:28:35;6.68;;;3.55;;
10511;SDS011;5304;48.604;2.096;2023-07-16T14:31:20;6.22;;;3.42;;
10511;SDS011;5304;48.604;2.096;2023-07-16T14:34:05;6.18;;;3.38;;
10511;SDS011;5304;48.604;2.096;2023-07-16T14:36:49;5.72;;;3.22;;
10511;SDS011;5304;48.604;2.096;2023-07-16T14:39:33;7.10;;;3.15;;
10511;SDS011;5304;48.604;2.096;2023-07-16T14:42:17;7.85;;;4.03;;
10511;SDS011;5304;48.604;2.096;2023-07-16T14:45:02;6.82;;;3.45;;
10511;SDS011;5304;48.604;2.096;2023-07-16T14:47:48;8.25;;;3.65;;
10511;SDS011;5304;48.604;2.096;2023-07-16T14:50:32;7.55;;;3.63;;
10511;SDS011;5304;48.604;2.096;2023-07-16T14:53:16;6.07;;;3.22;;
10511;SDS011;5304;48.604;2.096;2023-07-16T14:56:01;4.15;;;2.90;;
10511;SDS011;5304;48.604;2.096;2023-07-16T14:58:45;6.85;;;3.55;;
10511;SDS011;5304;48.604;2.096;2023-07-16T15:01:29;5.07;;;3.08;;
10511;SDS011;5304;48.604;2.096;2023-07-16T15:04:13;8.95;;;3.67;;
10511;SDS011;5304;48.604;2.096;2023-07-16T15:06:57;8.73;;;3.28;;
10511;SDS011;5304;48.604;2.096;2023-07-16T15:09:41;5.72;;;3.00;;
10511;SDS011;5304;48.604;2.096;2023-07-16T15:12:26;4.38;;;2.70;;
10511;SDS011;5304;48.604;2.096;2023-07-16T15:15:10;6.75;;;3.28;;
10511;SDS011;5304;48.604;2.096;2023-07-16T15:17:55;5.75;;;2.80;;
10511;SDS011;5304;48.604;2.096;2023-07-16T15:20:39;4.35;;;2.85;;
10511;SDS011;5304;48.604;2.096;2023-07-16T15:23:24;7.75;;;2.97;;
10511;SDS011;5304;48.604;2.096;2023-07-16T15:26:12;7.38;;;2.85;;
10511;SDS011;5304;48.604;2.096;2023-07-16T15:28:57;5.00;;;2.55;;
10511;SDS011;5304;48.604;2.096;2023-07-16T15:31:41;7.53;;;2.88;;
10511;SDS011;5304;48.604;2.096;2023-07-16T15:34:25;10.55;;;3.10;;
10511;SDS011;5304;48.604;2.096;2023-07-16T15:37:09;6.90;;;2.67;;
10511;SDS011;5304;48.604;2.096;2023-07-16T15:39:53;3.85;;;2.50;;
10511;SDS011;5304;48.604;2.096;2023-07-16T15:42:38;4.82;;;2.70;;
10511;SDS011;5304;48.604;2.096;2023-07-16T15:45:22;5.90;;;2.85;;
10511;SDS011;5304;48.604;2.096;2023-07-16T15:48:07;4.90;;;2.22;;
10511;SDS011;5304;48.604;2.096;2023-07-16T15:50:53;7.53;;;2.67;;
10511;SDS011;5304;48.604;2.096;2023-07-16T15:53:41;3.85;;;2.38;;
10511;SDS011;5304;48.604;2.096;2023-07-16T15:56:26;5.75;;;2.33;;
10511;SDS011;5304;48.604;2.096;2023-07-16T15:59:11;3.20;;;1.98;;
10511;SDS011;5304;48.604;2.096;2023-07-16T16:01:56;5.43;;;2.30;;
10511;SDS011;5304;48.604;2.096;2023-07-16T16:04:41;4.72;;;2.33;;
10511;SDS011;5304;48.604;2.096;2023-07-16T16:07:25;7.10;;;2.80;;
10511;SDS011;5304;48.604;2.096;2023-07-16T16:10:09;4.05;;;2.50;;
10511;SDS011;5304;48.604;2.096;2023-07-16T16:12:54;5.25;;;2.40;;
10511;SDS011;5304;48.604;2.096;2023-07-16T16:15:38;5.88;;;2.60;;
10511;SDS011;5304;48.604;2.096;2023-07-16T16:18:22;5.60;;;2.20;;
10511;SDS011;5304;48.604;2.096;2023-07-16T16:21:07;8.18;;;2.40;;
10511;SDS011;5304;48.604;2.096;2023-07-16T16:23:50;4.50;;;2.20;;
10511;SDS011;5304;48.604;2.096;2023-07-16T16:26:35;6.68;;;2.38;;
10511;SDS011;5304;48.604;2.096;2023-07-16T16:29:19;6.38;;;2.38;;
10511;SDS011;5304;48.604;2.096;2023-07-16T16:32:03;4.35;;;2.22;;
10511;SDS011;5304;48.604;2.096;2023-07-16T16:34:48;5.25;;;2.25;;
10511;SDS011;5304;48.604;2.096;2023-07-16T16:37:32;5.57;;;2.15;;
10511;SDS011;5304;48.604;2.096;2023-07-16T16:40:16;5.05;;;1.52;;
10511;SDS011;5304;48.604;2.096;2023-07-16T16:43:03;4.70;;;2.00;;
10511;SDS011;5304;48.604;2.096;2023-07-16T16:45:47;3.67;;;1.58;;
10511;SDS011;5304;48.604;2.096;2023-07-16T16:48:34;6.80;;;1.73;;
10511;SDS011;5304;48.604;2.096;2023-07-16T16:51:19;7.15;;;2.55;;
10511;SDS011;5304;48.604;2.096;2023-07-16T16:54:03;2.72;;;1.90;;
10511;SDS011;5304;48.604;2.096;2023-07-16T16:56:48;3.78;;;1.77;;
10511;SDS011;5304;48.604;2.096;2023-07-16T16:59:33;3.60;;;1.65;;
10511;SDS011;5304;48.604;2.096;2023-07-16T17:02:19;3.75;;;1.70;;
10511;SDS011;5304;48.604;2.096;2023-07-16T17:05:07;5.72;;;1.90;;
10511;SDS011;5304;48.604;2.096;2023-07-16T17:07:52;3.95;;;2.00;;
10511;SDS011;5304;48.604;2.096;2023-07-16T17:10:36;5.50;;;2.40;;
10511;SDS011;5304;48.604;2.096;2023-07-16T17:13:20;6.45;;;2.15;;
10511;SDS011;5304;48.604;2.096;2023-07-16T17:16:05;6.65;;;2.38;;
10511;SDS011;5304;48.604;2.096;2023-07-16T17:18:49;6.30;;;2.15;;
10511;SDS011;5304;48.604;2.096;2023-07-16T17:21:34;3.47;;;1.90;;
10511;SDS011;5304;48.604;2.096;2023-07-16T17:24:18;4.63;;;1.88;;
10511;SDS011;5304;48.604;2.096;2023-07-16T17:27:02;5.03;;;2.10;;
10511;SDS011;5304;48.604;2.096;2023-07-16T17:29:47;5.00;;;2.40;;
10511;SDS011;5304;48.604;2.096;2023-07-16T17:32:32;6.85;;;2.28;;
10511;SDS011;5304;48.604;2.096;2023-07-16T17:35:17;5.32;;;2.33;;
10511;SDS011;5304;48.604;2.096;2023-07-16T17:38:01;7.20;;;2.67;;
10511;SDS011;5304;48.604;2.096;2023-07-16T17:40:46;8.43;;;2.55;;
10511;SDS011;5304;48.604;2.096;2023-07-16T17:43:30;4.93;;;2.38;;
10511;SDS011;5304;48.604;2.096;2023-07-16T17:46:14;5.05;;;2.40;;
10511;SDS011;5304;48.604;2.096;2023-07-16T17:48:58;5.82;;;2.10;;
10511;SDS011;5304;48.604;2.096;2023-07-16T17:51:44;6.55;;;2.20;;
10511;SDS011;5304;48.604;2.096;2023-07-16T17:54:28;6.97;;;2.25;;
10511;SDS011;5304;48.604;2.096;2023-07-16T17:57:13;4.10;;;2.28;;
10511;SDS011;5304;48.604;2.096;2023-07-16T17:59:57;5.88;;;2.10;;
10511;SDS011;5304;48.604;2.096;2023-07-16T18:02:41;8.10;;;2.53;;
10511;SDS011;5304;48.604;2.096;2023-07-16T18:05:25;4.15;;;2.15;;
10511;SDS011;5304;48.604;2.096;2023-07-16T18:08:09;4.75;;;2.00;;
10511;SDS011;5304;48.604;2.096;2023-07-16T18:10:53;6.40;;;2.28;;
10511;SDS011;5304;48.604;2.096;2023-07-16T18:13:39;8.07;;;2.30;;
10511;SDS011;5304;48.604;2.096;2023-07-16T18:16:23;5.47;;;2.25;;
10511;SDS011;5304;48.604;2.096;2023-07-16T18:19:08;6.05;;;2.10;;
10511;SDS011;5304;48.604;2.096;2023-07-16T18:21:55;2.95;;;2.17;;
10511;SDS011;5304;48.604;2.096;2023-07-16T18:24:39;7.97;;;2.35;;
10511;SDS011;5304;48.604;2.096;2023-07-16T18:27:24;4.80;;;2.17;;
10511;SDS011;5304;48.604;2.096;2023-07-16T18:30:09;6.82;;;2.10;;
10511;SDS011;5304;48.604;2.096;2023-07-16T18:32:53;4.07;;;1.75;;
10511;SDS011;5304;48.604;2.096;2023-07-16T18:35:39;4.03;;;1.52;;
10511;SDS011;5304;48.604;2.096;2023-07-16T18:38:24;6.03;;;2.15;;
10511;SDS011;5304;48.604;2.096;2023-07-16T18:41:11;4.90;;;2.03;;
10511;SDS011;5304;48.604;2.096;2023-07-16T18:43:55;6.13;;;2.10;;
10511;SDS011;5304;48.604;2.096;2023-07-16T18:46:40;6.88;;;2.13;;
10511;SDS011;5304;48.604;2.096;2023-07-16T18:49:25;6.07;;;2.22;;
10511;SDS011;5304;48.604;2.096;2023-07-16T18:52:09;5.85;;;1.85;;
10511;SDS011;5304;48.604;2.096;2023-07-16T18:54:54;6.60;;;2.38;;
10511;SDS011;5304;48.604;2.096;2023-07-16T18:57:38;4.90;;;2.08;;
10511;SDS011;5304;48.604;2.096;2023-07-16T19:00:25;4.95;;;2.28;;
10511;SDS011;5304;48.604;2.096;2023-07-16T19:03:10;6.57;;;2.22;;
10511;SDS011;5304;48.604;2.096;2023-07-16T19:05:54;8.80;;;2.10;;
10511;SDS011;5304;48.604;2.096;2023-07-16T19:08:38;3.90;;;2.22;;
10511;SDS011;5304;48.604;2.096;2023-07-16T19:11:22;6.65;;;2.25;;
10511;SDS011;5304;48.604;2.096;2023-07-16T19:14:08;5.57;;;2.15;;
10511;SDS011;5304;48.604;2.096;2023-07-16T19:16:52;8.68;;;2.22;;
10511;SDS011;5304;48.604;2.096;2023-07-16T19:19:36;5.32;;;2.20;;
10511;SDS011;5304;48.604;2.096;2023-07-16T19:22:23;3.80;;;1.70;;
10511;SDS011;5304;48.604;2.096;2023-07-16T19:25:10;6.03;;;1.90;;
10511;SDS011;5304;48.604;2.096;2023-07-16T19:27:54;4.07;;;2.17;;
10511;SDS011;5304;48.604;2.096;2023-07-16T19:30:38;3.40;;;2.17;;
10511;SDS011;5304;48.604;2.096;2023-07-16T19:33:23;5.75;;;2.15;;
10511;SDS011;5304;48.604;2.096;2023-07-16T19:36:07;5.25;;;2.05;;
10511;SDS011;5304;48.604;2.096;2023-07-16T19:38:52;5.38;;;2.15;;
10511;SDS011;5304;48.604;2.096;2023-07-16T19:41:36;6.95;;;2.22;;
10511;SDS011;5304;48.604;2.096;2023-07-16T19:44:20;10.63;;;2.03;;
10511;SDS011;5304;48.604;2.096;2023-07-16T19:47:05;5.50;;;1.80;;
10511;SDS011;5304;48.604;2.096;2023-07-16T19:49:49;4.50;;;1.95;;
10511;SDS011;5304;48.604;2.096;2023-07-16T19:52:34;4.65;;;1.80;;
10511;SDS011;5304;48.604;2.096;2023-07-16T19:55:18;6.50;;;1.85;;
10511;SDS011;5304;48.604;2.096;2023-07-16T19:58:02;5.35;;;2.15;;
10511;SDS011;5304;48.604;2.096;2023-07-16T20:00:47;3.45;;;1.88;;
10511;SDS011;5304;48.604;2.096;2023-07-16T20:03:31;4.28;;;2.00;;
10511;SDS011;5304;48.604;2.096;2023-07-16T20:06:15;3.60;;;1.77;;
10511;SDS011;5304;48.604;2.096;2023-07-16T20:09:01;4.20;;;1.65;;
10511;SDS011;5304;48.604;2.096;2023-07-16T20:11:46;4.85;;;2.00;;
10511;SDS011;5304;48.604;2.096;2023-07-16T20:14:32;3.42;;;1.67;;
10511;SDS011;5304;48.604;2.096;2023-07-16T20:17:17;4.18;;;1.80;;
10511;SDS011;5304;48.604;2.096;2023-07-16T20:20:01;2.67;;;1.95;;
10511;SDS011;5304;48.604;2.096;2023-07-16T20:22:46;4.70;;;1.90;;
10511;SDS011;5304;48.604;2.096;2023-07-16T20:25:30;3.60;;;1.60;;
10511;SDS011;5304;48.604;2.096;2023-07-16T20:28:15;5.97;;;2.08;;
10511;SDS011;5304;48.604;2.096;2023-07-16T20:31:01;6.10;;;2.05;;
10511;SDS011;5304;48.604;2.096;2023-07-16T20:33:46;11.10;;;2.22;;
10511;SDS011;5304;48.604;2.096;2023-07-16T20:36:30;5.68;;;2.00;;
10511;SDS011;5304;48.604;2.096;2023-07-16T20:39:14;6.25;;;1.88;;
10511;SDS011;5304;48.604;2.096;2023-07-16T20:41:58;2.95;;;2.00;;
10511;SDS011;5304;48.604;2.096;2023-07-16T20:44:54;4.18;;;1.77;;
10511;SDS011;5304;48.604;2.096;2023-07-16T20:48:06;10.05;;;2.42;;
10511;SDS011;5304;48.604;2.096;2023-07-16T20:50:50;6.38;;;2.33;;
10511;SDS011;5304;48.604;2.096;2023-07-16T20:53:34;3.15;;;1.92;;
